sensor_id;sensor_type;location;lat;lon;timestamp;pressure;altitude;pressure_sealevel;temperature;humidity
44531;BME280;30240;47.418;0.700;2023-07-13T00:01:44;100631.45141601562;;;17.16;68.96
44531;BME280;30240;47.418;0.700;2023-07-13T00:04:09;100633.0810546875;;;17.07;69.37
44531;BME280;30240;47.418;0.700;2023-07-13T00:06:34;100633.0810546875;;;16.9;69.74
44531;BME280;30240;47.418;0.700;2023-07-13T00:08:59;100633.0810546875;;;16.9;69.74
44531;BME280;30240;47.418;0.700;2023-07-13T00:11:23;100636.60278320312;;;16.92;69.8
44531;BME280;30240;47.418;0.700;2023-07-13T00:13:48;100631.08520507812;;;16.94;69.95
44531;BME280;30240;47.418;0.700;2023-07-13T00:16:13;100631.39038085938;;;16.96;70.22
44531;BME280;30240;47.418;0.700;2023-07-13T00:18:39;100637.98217773438;;;16.94;70.02
44531;BME280;30240;47.418;0.700;2023-07-13T00:21:04;100637.98217773438;;;16.94;70.02
44531;BME280;30240;47.418;0.700;2023-07-13T00:23:28;100640.46630859375;;;16.82;70.41
44531;BME280;30240;47.418;0.700;2023-07-13T00:25:53;100631.67724609375;;;16.86;70.25
44531;BME280;30240;47.418;0.700;2023-07-13T00:28:18;100631.58569335938;;;16.89;70.66
44531;BME280;30240;47.418;0.700;2023-07-13T00:30:43;100636.36474609375;;;16.78;70.82
44531;BME280;30240;47.418;0.700;2023-07-13T00:33:08;100636.36474609375;;;16.78;70.82
44531;BME280;30240;47.418;0.700;2023-07-13T00:35:34;100637.20092773438;;;16.71;71.16
44531;BME280;30240;47.418;0.700;2023-07-13T00:37:58;100638.22631835938;;;16.67;70.98
44531;BME280;30240;47.418;0.700;2023-07-13T00:40:23;100636.71875;;;16.71;71.21
44531;BME280;30240;47.418;0.700;2023-07-13T00:42:51;100640.64331054688;;;16.8;71.04
44531;BME280;30240;47.418;0.700;2023-07-13T00:46:17;100649.23706054688;;;16.78;71.12
44531;BME280;30240;47.418;0.700;2023-07-13T00:47:39;100649.23706054688;;;16.78;71.12
44531;BME280;30240;47.418;0.700;2023-07-13T00:50:05;100650.2197265625;;;16.73;71.63
44531;BME280;30240;47.418;0.700;2023-07-13T00:52:29;100651.33056640625;;;16.76;71.42
44531;BME280;30240;47.418;0.700;2023-07-13T00:54:54;100654.71801757812;;;16.61;71.37
44531;BME280;30240;47.418;0.700;2023-07-13T00:57:19;100655.41381835938;;;16.47;71.91
44531;BME280;30240;47.418;0.700;2023-07-13T00:59:47;100655.41381835938;;;16.47;71.91
44531;BME280;30240;47.418;0.700;2023-07-13T01:02:09;100657.30590820312;;;16.59;71.49
44531;BME280;30240;47.418;0.700;2023-07-13T01:04:33;100661.34643554688;;;16.69;71.23
44531;BME280;30240;47.418;0.700;2023-07-13T01:06:59;100663.67797851562;;;16.64;71.28
44531;BME280;30240;47.418;0.700;2023-07-13T01:09:26;100667.63305664062;;;16.47;71.78
44531;BME280;30240;47.418;0.700;2023-07-13T01:11:48;100667.63305664062;;;16.47;71.78
44531;BME280;30240;47.418;0.700;2023-07-13T01:14:14;100663.42163085938;;;16.38;72.12
44531;BME280;30240;47.418;0.700;2023-07-13T01:16:40;100664.84375;;;16.38;71.91
44531;BME280;30240;47.418;0.700;2023-07-13T01:19:10;100668.10913085938;;;16.52;71.94
44531;BME280;30240;47.418;0.700;2023-07-13T01:21:31;100665.90576171875;;;16.47;71.83
44531;BME280;30240;47.418;0.700;2023-07-13T01:23:54;100665.90576171875;;;16.47;71.83
44531;BME280;30240;47.418;0.700;2023-07-13T01:26:18;100669.98291015625;;;16.52;72.1
44531;BME280;30240;47.418;0.700;2023-07-13T01:28:44;100669.39697265625;;;16.17;72.85
44531;BME280;30240;47.418;0.700;2023-07-13T01:31:09;100670.751953125;;;16.1;73.35
44531;BME280;30240;47.418;0.700;2023-07-13T01:33:34;100668.51806640625;;;16.2;73.38
44531;BME280;30240;47.418;0.700;2023-07-13T01:35:58;100668.51806640625;;;16.2;73.38
44531;BME280;30240;47.418;0.700;2023-07-13T01:38:24;100674.78637695312;;;16.27;73.22
44531;BME280;30240;47.418;0.700;2023-07-13T01:40:49;100669.97680664062;;;16.13;73.77
44531;BME280;30240;47.418;0.700;2023-07-13T01:43:14;100672.45483398438;;;16.21;73.82
44531;BME280;30240;47.418;0.700;2023-07-13T01:45:38;100674.02954101562;;;16.01;74.18
44531;BME280;30240;47.418;0.700;2023-07-13T01:48:04;100674.02954101562;;;16.01;74.18
44531;BME280;30240;47.418;0.700;2023-07-13T01:50:28;100672.38159179688;;;15.89;74.72
44531;BME280;30240;47.418;0.700;2023-07-13T01:52:54;100669.9462890625;;;15.93;74.7
44531;BME280;30240;47.418;0.700;2023-07-13T01:55:19;100670.68481445312;;;15.81;75.19
44531;BME280;30240;47.418;0.700;2023-07-13T01:57:43;100664.65454101562;;;15.93;74.84
44531;BME280;30240;47.418;0.700;2023-07-13T02:00:10;100664.65454101562;;;15.93;74.84
44531;BME280;30240;47.418;0.700;2023-07-13T02:02:33;100671.78344726562;;;15.88;75.1
44531;BME280;30240;47.418;0.700;2023-07-13T02:04:58;100678.7353515625;;;15.82;75.54
44531;BME280;30240;47.418;0.700;2023-07-13T02:07:23;100679.96826171875;;;15.68;75.74
44531;BME280;30240;47.418;0.700;2023-07-13T02:09:48;100684.66186523438;;;15.72;75.92
44531;BME280;30240;47.418;0.700;2023-07-13T02:12:14;100687.20092773438;;;15.61;76.4
44531;BME280;30240;47.418;0.700;2023-07-13T02:14:38;100687.20092773438;;;15.61;76.4
44531;BME280;30240;47.418;0.700;2023-07-13T02:17:04;100681.4453125;;;15.81;75.73
44531;BME280;30240;47.418;0.700;2023-07-13T02:19:28;100682.86743164062;;;15.6;76.44
44531;BME280;30240;47.418;0.700;2023-07-13T02:21:53;100683.56323242188;;;15.4;77.12
44531;BME280;30240;47.418;0.700;2023-07-13T02:24:18;100680.56030273438;;;15.44;76.84
44531;BME280;30240;47.418;0.700;2023-07-13T02:26:44;100680.56030273438;;;15.44;76.84
44531;BME280;30240;47.418;0.700;2023-07-13T02:29:08;100680.2734375;;;15.47;77.1
44531;BME280;30240;47.418;0.700;2023-07-13T02:31:33;100680.517578125;;;15.47;77.0
44531;BME280;30240;47.418;0.700;2023-07-13T02:33:58;100693.21899414062;;;15.44;77.19
44531;BME280;30240;47.418;0.700;2023-07-13T02:36:24;100689.14794921875;;;15.34;77.45
44531;BME280;30240;47.418;0.700;2023-07-13T02:38:49;100689.14794921875;;;15.34;77.45
44531;BME280;30240;47.418;0.700;2023-07-13T02:41:13;100693.02978515625;;;15.36;77.58
44531;BME280;30240;47.418;0.700;2023-07-13T02:43:39;100694.95239257812;;;15.27;77.94
44531;BME280;30240;47.418;0.700;2023-07-13T02:46:04;100701.86157226562;;;15.16;78.21
44531;BME280;30240;47.418;0.700;2023-07-13T02:48:28;100702.392578125;;;15.05;78.58
44531;BME280;30240;47.418;0.700;2023-07-13T02:50:53;100702.392578125;;;15.05;78.58
44531;BME280;30240;47.418;0.700;2023-07-13T02:53:18;100698.876953125;;;15.12;78.72
44531;BME280;30240;47.418;0.700;2023-07-13T02:55:43;100701.9775390625;;;15.09;78.8
44531;BME280;30240;47.418;0.700;2023-07-13T02:58:08;100703.61938476562;;;15.05;78.77
44531;BME280;30240;47.418;0.700;2023-07-13T03:00:34;100707.8125;;;14.92;79.42
44531;BME280;30240;47.418;0.700;2023-07-13T03:02:59;100707.8125;;;14.92;79.42
44531;BME280;30240;47.418;0.700;2023-07-13T03:05:24;100707.79418945312;;;15.03;79.09
44531;BME280;30240;47.418;0.700;2023-07-13T03:07:49;100704.01611328125;;;15.01;79.1
44531;BME280;30240;47.418;0.700;2023-07-13T03:10:13;100707.52563476562;;;14.88;79.5
44531;BME280;30240;47.418;0.700;2023-07-13T03:12:38;100708.87451171875;;;14.85;79.84
44531;BME280;30240;47.418;0.700;2023-07-13T03:15:04;100708.87451171875;;;14.85;79.84
44531;BME280;30240;47.418;0.700;2023-07-13T03:17:28;100710.96801757812;;;14.83;79.83
44531;BME280;30240;47.418;0.700;2023-07-13T03:19:53;100708.62426757812;;;14.88;79.87
44531;BME280;30240;47.418;0.700;2023-07-13T03:22:19;100713.25073242188;;;14.92;79.86
44531;BME280;30240;47.418;0.700;2023-07-13T03:24:44;100721.64306640625;;;14.92;79.78
44531;BME280;30240;47.418;0.700;2023-07-13T03:27:09;100721.64306640625;;;14.92;79.78
44531;BME280;30240;47.418;0.700;2023-07-13T03:29:33;100727.98461914062;;;14.89;79.88
44531;BME280;30240;47.418;0.700;2023-07-13T03:31:58;100732.6904296875;;;14.84;79.95
44531;BME280;30240;47.418;0.700;2023-07-13T03:34:23;100733.23364257812;;;14.94;79.96
44531;BME280;30240;47.418;0.700;2023-07-13T03:36:48;100729.54711914062;;;14.85;79.98
44531;BME280;30240;47.418;0.700;2023-07-13T03:39:13;100729.54711914062;;;14.85;79.98
44531;BME280;30240;47.418;0.700;2023-07-13T03:41:38;100738.720703125;;;14.95;80.19
44531;BME280;30240;47.418;0.700;2023-07-13T03:44:04;100738.61083984375;;;14.94;79.81
44531;BME280;30240;47.418;0.700;2023-07-13T03:46:29;100736.34643554688;;;14.87;80.27
44531;BME280;30240;47.418;0.700;2023-07-13T03:48:54;100742.98706054688;;;14.8;80.39
44531;BME280;30240;47.418;0.700;2023-07-13T03:51:19;100736.23657226562;;;14.81;80.45
44531;BME280;30240;47.418;0.700;2023-07-13T03:53:45;100736.23657226562;;;14.81;80.45
44531;BME280;30240;47.418;0.700;2023-07-13T03:56:09;100738.76342773438;;;14.85;80.31
44531;BME280;30240;47.418;0.700;2023-07-13T03:58:35;100735.73608398438;;;14.71;80.68
44531;BME280;30240;47.418;0.700;2023-07-13T04:00:59;100731.28662109375;;;14.67;80.64
44531;BME280;30240;47.418;0.700;2023-07-13T04:03:24;100732.04956054688;;;14.74;80.76
44531;BME280;30240;47.418;0.700;2023-07-13T04:05:49;100732.04956054688;;;14.74;80.76
44531;BME280;30240;47.418;0.700;2023-07-13T04:08:13;100733.57543945312;;;14.56;81.1
44531;BME280;30240;47.418;0.700;2023-07-13T04:10:39;100734.7412109375;;;14.55;81.14
44531;BME280;30240;47.418;0.700;2023-07-13T04:13:04;100732.06787109375;;;14.47;81.34
44531;BME280;30240;47.418;0.700;2023-07-13T04:15:30;100735.57739257812;;;14.44;81.46
44531;BME280;30240;47.418;0.700;2023-07-13T04:17:54;100735.57739257812;;;14.44;81.46
44531;BME280;30240;47.418;0.700;2023-07-13T04:20:18;100738.720703125;;;14.53;81.4
44531;BME280;30240;47.418;0.700;2023-07-13T04:22:44;100742.20581054688;;;14.56;81.2
44531;BME280;30240;47.418;0.700;2023-07-13T04:25:09;100746.6796875;;;14.39;81.6
44531;BME280;30240;47.418;0.700;2023-07-13T04:27:34;100749.49951171875;;;14.39;81.55
44531;BME280;30240;47.418;0.700;2023-07-13T04:29:59;100749.49951171875;;;14.39;81.55
44531;BME280;30240;47.418;0.700;2023-07-13T04:32:24;100753.28369140625;;;14.46;81.24
44531;BME280;30240;47.418;0.700;2023-07-13T04:34:49;100754.0771484375;;;14.57;81.3
44531;BME280;30240;47.418;0.700;2023-07-13T04:37:14;100757.080078125;;;14.56;81.28
44531;BME280;30240;47.418;0.700;2023-07-13T04:39:39;100760.79711914062;;;14.47;81.29
44531;BME280;30240;47.418;0.700;2023-07-13T04:42:04;100760.79711914062;;;14.47;81.29
44531;BME280;30240;47.418;0.700;2023-07-13T04:44:29;100760.9130859375;;;14.7;81.13
44531;BME280;30240;47.418;0.700;2023-07-13T04:46:54;100764.03198242188;;;14.59;81.32
44531;BME280;30240;47.418;0.700;2023-07-13T04:49:18;100766.064453125;;;14.78;81.12
44531;BME280;30240;47.418;0.700;2023-07-13T04:51:44;100774.94506835938;;;14.71;81.14
44531;BME280;30240;47.418;0.700;2023-07-13T04:54:09;100774.94506835938;;;14.71;81.14
44531;BME280;30240;47.418;0.700;2023-07-13T04:56:34;100781.89086914062;;;14.89;80.97
44531;BME280;30240;47.418;0.700;2023-07-13T04:58:59;100780.908203125;;;15.19;80.42
44531;BME280;30240;47.418;0.700;2023-07-13T05:01:24;100781.18896484375;;;15.34;79.89
44531;BME280;30240;47.418;0.700;2023-07-13T05:03:49;100781.87255859375;;;15.49;79.78
44531;BME280;30240;47.418;0.700;2023-07-13T05:06:14;100781.87255859375;;;15.49;79.78
44531;BME280;30240;47.418;0.700;2023-07-13T05:08:39;100781.87255859375;;;15.33;79.81
44531;BME280;30240;47.418;0.700;2023-07-13T05:11:04;100786.23657226562;;;15.27;80.21
44531;BME280;30240;47.418;0.700;2023-07-13T05:13:29;100784.85717773438;;;15.42;80.11
44531;BME280;30240;47.418;0.700;2023-07-13T05:15:56;100784.53979492188;;;15.51;79.99
44531;BME280;30240;47.418;0.700;2023-07-13T05:18:19;100782.26318359375;;;15.51;80.16
44531;BME280;30240;47.418;0.700;2023-07-13T05:20:44;100782.26318359375;;;15.51;80.16
44531;BME280;30240;47.418;0.700;2023-07-13T05:23:09;100786.07788085938;;;15.39;80.3
44531;BME280;30240;47.418;0.700;2023-07-13T05:25:34;100785.24780273438;;;15.46;80.2
44531;BME280;30240;47.418;0.700;2023-07-13T05:27:58;100783.78295898438;;;15.61;79.9
44531;BME280;30240;47.418;0.700;2023-07-13T05:30:24;100782.666015625;;;15.65;79.54
44531;BME280;30240;47.418;0.700;2023-07-13T05:32:48;100782.666015625;;;15.65;79.54
44531;BME280;30240;47.418;0.700;2023-07-13T05:35:14;100790.20385742188;;;15.72;79.8
44531;BME280;30240;47.418;0.700;2023-07-13T05:37:38;100794.34204101562;;;15.71;79.99
44531;BME280;30240;47.418;0.700;2023-07-13T05:40:04;100796.64306640625;;;15.69;79.62
44531;BME280;30240;47.418;0.700;2023-07-13T05:42:29;100789.31274414062;;;15.58;80.18
44531;BME280;30240;47.418;0.700;2023-07-13T05:44:54;100789.31274414062;;;15.58;80.18
44531;BME280;30240;47.418;0.700;2023-07-13T05:47:19;100786.38305664062;;;15.92;79.38
44531;BME280;30240;47.418;0.700;2023-07-13T05:49:43;100791.05224609375;;;15.93;79.53
44531;BME280;30240;47.418;0.700;2023-07-13T05:52:09;100785.82763671875;;;15.78;79.87
44531;BME280;30240;47.418;0.700;2023-07-13T05:54:33;100789.76440429688;;;15.69;80.18
44531;BME280;30240;47.418;0.700;2023-07-13T05:56:59;100789.76440429688;;;15.69;80.18
44531;BME280;30240;47.418;0.700;2023-07-13T05:59:23;100791.54663085938;;;15.61;80.31
44531;BME280;30240;47.418;0.700;2023-07-13T06:01:49;100786.2060546875;;;15.79;79.91
44531;BME280;30240;47.418;0.700;2023-07-13T06:04:14;100791.0888671875;;;15.91;79.51
44531;BME280;30240;47.418;0.700;2023-07-13T06:06:39;100793.44482421875;;;16.08;79.37
44531;BME280;30240;47.418;0.700;2023-07-13T06:09:04;100793.44482421875;;;16.08;79.37
44531;BME280;30240;47.418;0.700;2023-07-13T06:11:29;100806.01806640625;;;16.13;79.23
44531;BME280;30240;47.418;0.700;2023-07-13T06:13:54;100812.95166015625;;;16.05;79.52
44531;BME280;30240;47.418;0.700;2023-07-13T06:16:19;100815.52124023438;;;15.79;80.07
44531;BME280;30240;47.418;0.700;2023-07-13T06:18:44;100815.5029296875;;;16.28;79.55
44531;BME280;30240;47.418;0.700;2023-07-13T06:21:10;100815.5029296875;;;16.28;79.55
44531;BME280;30240;47.418;0.700;2023-07-13T06:23:34;100815.7470703125;;;16.17;79.34
44531;BME280;30240;47.418;0.700;2023-07-13T06:25:59;100808.3251953125;;;16.21;79.67
44531;BME280;30240;47.418;0.700;2023-07-13T06:28:23;100814.98413085938;;;16.41;79.27
44531;BME280;30240;47.418;0.700;2023-07-13T06:30:49;100814.6240234375;;;16.59;79.1
44531;BME280;30240;47.418;0.700;2023-07-13T06:33:13;100814.6240234375;;;16.59;79.1
44531;BME280;30240;47.418;0.700;2023-07-13T06:35:38;100823.02856445312;;;16.45;79.49
44531;BME280;30240;47.418;0.700;2023-07-13T06:38:03;100827.587890625;;;16.79;78.84
44531;BME280;30240;47.418;0.700;2023-07-13T06:40:28;100834.78393554688;;;16.65;78.85
44531;BME280;30240;47.418;0.700;2023-07-13T06:42:54;100843.81103515625;;;16.52;79.01
44531;BME280;30240;47.418;0.700;2023-07-13T06:45:19;100843.81103515625;;;16.52;79.01
44531;BME280;30240;47.418;0.700;2023-07-13T06:47:44;100836.51733398438;;;16.61;79.44
44531;BME280;30240;47.418;0.700;2023-07-13T06:50:09;100836.63940429688;;;16.89;78.56
44531;BME280;30240;47.418;0.700;2023-07-13T06:52:33;100846.11206054688;;;16.87;78.12
44531;BME280;30240;47.418;0.700;2023-07-13T06:54:58;100852.94799804688;;;17.02;78.45
44531;BME280;30240;47.418;0.700;2023-07-13T06:57:24;100862.2314453125;;;16.96;78.14
44531;BME280;30240;47.418;0.700;2023-07-13T06:59:49;100862.2314453125;;;16.96;78.14
44531;BME280;30240;47.418;0.700;2023-07-13T07:02:14;100861.19384765625;;;16.8;78.35
44531;BME280;30240;47.418;0.700;2023-07-13T07:04:39;100857.470703125;;;17.1;77.78
44531;BME280;30240;47.418;0.700;2023-07-13T07:07:04;100854.8095703125;;;17.23;77.43
44531;BME280;30240;47.418;0.700;2023-07-13T07:09:28;100852.87475585938;;;17.34;77.16
44531;BME280;30240;47.418;0.700;2023-07-13T07:11:53;100852.87475585938;;;17.34;77.16
44531;BME280;30240;47.418;0.700;2023-07-13T07:14:19;100856.7138671875;;;17.63;76.69
44531;BME280;30240;47.418;0.700;2023-07-13T07:16:44;100856.99462890625;;;17.83;76.09
44531;BME280;30240;47.418;0.700;2023-07-13T07:19:08;100855.615234375;;;18.39;74.67
44531;BME280;30240;47.418;0.700;2023-07-13T07:21:34;100864.03198242188;;;18.18;73.76
44531;BME280;30240;47.418;0.700;2023-07-13T07:23:59;100864.03198242188;;;18.18;73.76
44531;BME280;30240;47.418;0.700;2023-07-13T07:26:23;100866.54663085938;;;18.12;73.92
44531;BME280;30240;47.418;0.700;2023-07-13T07:28:48;100870.068359375;;;18.35;74.2
44531;BME280;30240;47.418;0.700;2023-07-13T07:31:14;100870.98388671875;;;18.63;72.76
44531;BME280;30240;47.418;0.700;2023-07-13T07:33:39;100874.62768554688;;;19.07;71.67
44531;BME280;30240;47.418;0.700;2023-07-13T07:36:04;100874.62768554688;;;19.07;71.67
44531;BME280;30240;47.418;0.700;2023-07-13T07:38:29;100876.09252929688;;;18.76;72.59
44531;BME280;30240;47.418;0.700;2023-07-13T07:40:54;100873.12622070312;;;18.62;73.08
44531;BME280;30240;47.418;0.700;2023-07-13T07:43:19;100879.296875;;;18.38;73.4
44531;BME280;30240;47.418;0.700;2023-07-13T07:45:44;100876.3427734375;;;18.8;72.29
44531;BME280;30240;47.418;0.700;2023-07-13T07:48:08;100876.3427734375;;;18.8;72.29
44531;BME280;30240;47.418;0.700;2023-07-13T07:50:34;100887.17041015625;;;18.6;73.23
44531;BME280;30240;47.418;0.700;2023-07-13T07:52:59;100886.48681640625;;;19.02;71.82
44531;BME280;30240;47.418;0.700;2023-07-13T07:55:25;100883.642578125;;;19.43;70.98
44531;BME280;30240;47.418;0.700;2023-07-13T07:57:49;100879.84619140625;;;19.54;70.57
44531;BME280;30240;47.418;0.700;2023-07-13T08:00:14;100879.84619140625;;;19.54;70.57
44531;BME280;30240;47.418;0.700;2023-07-13T08:02:39;100867.04711914062;;;19.23;71.18
44531;BME280;30240;47.418;0.700;2023-07-13T08:05:04;100873.57788085938;;;19.81;69.63
44531;BME280;30240;47.418;0.700;2023-07-13T08:07:30;100868.84155273438;;;20.02;69.64
44531;BME280;30240;47.418;0.700;2023-07-13T08:09:54;100869.44580078125;;;19.78;69.35
44531;BME280;30240;47.418;0.700;2023-07-13T08:12:18;100869.44580078125;;;19.78;69.35
44531;BME280;30240;47.418;0.700;2023-07-13T08:14:43;100864.12353515625;;;20.18;68.6
44531;BME280;30240;47.418;0.700;2023-07-13T08:17:08;100866.60766601562;;;20.22;67.81
44531;BME280;30240;47.418;0.700;2023-07-13T08:19:33;100871.85668945312;;;20.58;67.3
44531;BME280;30240;47.418;0.700;2023-07-13T08:21:58;100868.21899414062;;;19.98;68.22
44531;BME280;30240;47.418;0.700;2023-07-13T08:24:24;100870.64208984375;;;19.82;68.06
44531;BME280;30240;47.418;0.700;2023-07-13T08:26:50;100870.64208984375;;;19.82;68.06
44531;BME280;30240;47.418;0.700;2023-07-13T08:29:14;100872.34497070312;;;19.99;67.39
44531;BME280;30240;47.418;0.700;2023-07-13T08:31:38;100862.890625;;;20.2;66.64
44531;BME280;30240;47.418;0.700;2023-07-13T08:34:04;100863.58032226562;;;20.01;67.07
44531;BME280;30240;47.418;0.700;2023-07-13T08:36:29;100869.091796875;;;19.78;67.97
44531;BME280;30240;47.418;0.700;2023-07-13T08:38:53;100869.091796875;;;19.78;67.97
44531;BME280;30240;47.418;0.700;2023-07-13T08:41:19;100863.58032226562;;;20.48;66.31
44531;BME280;30240;47.418;0.700;2023-07-13T08:43:46;100859.56420898438;;;20.47;65.31
44531;BME280;30240;47.418;0.700;2023-07-13T08:46:12;100865.380859375;;;20.85;65.46
44531;BME280;30240;47.418;0.700;2023-07-13T08:48:36;100853.59497070312;;;21.16;64.19
44531;BME280;30240;47.418;0.700;2023-07-13T08:51:02;100853.59497070312;;;21.16;64.19
44531;BME280;30240;47.418;0.700;2023-07-13T08:53:33;100848.01635742188;;;21.3;62.73
44531;BME280;30240;47.418;0.700;2023-07-13T08:53:33;100848.01635742188;;;21.3;62.73
44531;BME280;30240;47.418;0.700;2023-07-13T08:55:50;100860.68115234375;;;20.57;64.5
44531;BME280;30240;47.418;0.700;2023-07-13T08:58:16;100861.46240234375;;;20.89;64.54
44531;BME280;30240;47.418;0.700;2023-07-13T09:00:44;100846.044921875;;;22.52;60.3
44531;BME280;30240;47.418;0.700;2023-07-13T09:00:48;100846.044921875;;;22.52;60.3
44531;BME280;30240;47.418;0.700;2023-07-13T09:03:05;100846.044921875;;;22.52;60.3
44531;BME280;30240;47.418;0.700;2023-07-13T09:05:31;100836.60278320312;;;22.09;60.66
44531;BME280;30240;47.418;0.700;2023-07-13T09:08:02;100853.24096679688;;;21.09;63.63
44531;BME280;30240;47.418;0.700;2023-07-13T09:08:10;100853.24096679688;;;21.09;63.63
44531;BME280;30240;47.418;0.700;2023-07-13T09:08:18;100853.24096679688;;;21.09;63.63
44531;BME280;30240;47.418;0.700;2023-07-13T09:08:29;100853.24096679688;;;21.09;63.63
44531;BME280;30240;47.418;0.700;2023-07-13T09:08:38;100853.24096679688;;;21.09;63.63
44531;BME280;30240;47.418;0.700;2023-07-13T09:10:21;100853.3447265625;;;22.07;60.98
44531;BME280;30240;47.418;0.700;2023-07-13T09:12:50;100855.84106445312;;;22.16;59.86
44531;BME280;30240;47.418;0.700;2023-07-13T09:15:24;100855.84106445312;;;22.16;59.86
44531;BME280;30240;47.418;0.700;2023-07-13T09:17:41;100848.91967773438;;;21.68;60.88
44531;BME280;30240;47.418;0.700;2023-07-13T09:20:01;100850.341796875;;;23.34;57.07
44531;BME280;30240;47.418;0.700;2023-07-13T09:22:25;100849.40795898438;;;22.14;58.76
44531;BME280;30240;47.418;0.700;2023-07-13T09:24:52;100862.46948242188;;;21.09;61.26
44531;BME280;30240;47.418;0.700;2023-07-13T09:27:17;100862.46948242188;;;21.09;61.26
44531;BME280;30240;47.418;0.700;2023-07-13T09:29:41;100858.79516601562;;;22.44;59.54
44531;BME280;30240;47.418;0.700;2023-07-13T09:32:06;100853.35693359375;;;23.21;55.53
44531;BME280;30240;47.418;0.700;2023-07-13T09:34:29;100851.40380859375;;;23.87;53.33
44531;BME280;30240;47.418;0.700;2023-07-13T09:36:54;100848.94409179688;;;23.86;54.99
44531;BME280;30240;47.418;0.700;2023-07-13T09:39:27;100848.94409179688;;;23.86;54.99
44531;BME280;30240;47.418;0.700;2023-07-13T09:41:48;100848.63891601562;;;22.89;57.12
44531;BME280;30240;47.418;0.700;2023-07-13T09:44:10;100834.57641601562;;;23.35;55.86
44531;BME280;30240;47.418;0.700;2023-07-13T09:46:34;100839.59350585938;;;22.51;57.66
44531;BME280;30240;47.418;0.700;2023-07-13T09:48:59;100838.22021484375;;;22.99;56.93
44531;BME280;30240;47.418;0.700;2023-07-13T09:51:23;100838.22021484375;;;22.99;56.93
44531;BME280;30240;47.418;0.700;2023-07-13T09:53:49;100854.60815429688;;;22.38;57.97
44531;BME280;30240;47.418;0.700;2023-07-13T09:56:19;100859.62524414062;;;22.68;56.8
44531;BME280;30240;47.418;0.700;2023-07-13T09:58:38;100844.20166015625;;;23.31;54.68
44531;BME280;30240;47.418;0.700;2023-07-13T10:01:04;100839.6240234375;;;23.49;55.21
44531;BME280;30240;47.418;0.700;2023-07-13T10:03:30;100844.4091796875;;;22.37;57.76
44531;BME280;30240;47.418;0.700;2023-07-13T10:05:54;100844.4091796875;;;22.37;57.76
44531;BME280;30240;47.418;0.700;2023-07-13T10:08:21;100858.23364257812;;;23.1;55.78
44531;BME280;30240;47.418;0.700;2023-07-13T10:10:44;100851.0986328125;;;23.98;53.05
44531;BME280;30240;47.418;0.700;2023-07-13T10:13:26;100842.7490234375;;;25.26;50.18
44531;BME280;30240;47.418;0.700;2023-07-13T10:15:34;100843.24951171875;;;22.93;54.97
44531;BME280;30240;47.418;0.700;2023-07-13T10:17:59;100843.24951171875;;;22.93;54.97
44531;BME280;30240;47.418;0.700;2023-07-13T10:20:24;100850.09155273438;;;22.41;56.23
44531;BME280;30240;47.418;0.700;2023-07-13T10:22:53;100852.32543945312;;;23.55;54.04
44531;BME280;30240;47.418;0.700;2023-07-13T10:25:15;100854.30297851562;;;23.56;52.42
44531;BME280;30240;47.418;0.700;2023-07-13T10:27:39;100855.43823242188;;;22.73;54.91
44531;BME280;30240;47.418;0.700;2023-07-13T10:30:13;100855.43823242188;;;22.73;54.91
44531;BME280;30240;47.418;0.700;2023-07-13T10:32:28;100855.60302734375;;;22.86;54.04
44531;BME280;30240;47.418;0.700;2023-07-13T10:34:54;100859.82666015625;;;23.24;54.07
44531;BME280;30240;47.418;0.700;2023-07-13T10:37:20;100852.5634765625;;;22.86;53.77
44531;BME280;30240;47.418;0.700;2023-07-13T10:39:44;100862.90893554688;;;22.7;54.87
44531;BME280;30240;47.418;0.700;2023-07-13T10:42:13;100862.90893554688;;;22.7;54.87
44531;BME280;30240;47.418;0.700;2023-07-13T10:44:33;100856.94580078125;;;23.42;53.49
44531;BME280;30240;47.418;0.700;2023-07-13T10:47:00;100850.40893554688;;;23.52;52.48
44531;BME280;30240;47.418;0.700;2023-07-13T10:49:24;100851.92260742188;;;23.31;52.18
44531;BME280;30240;47.418;0.700;2023-07-13T10:51:49;100846.37451171875;;;23.98;49.74
44531;BME280;30240;47.418;0.700;2023-07-13T10:54:16;100846.37451171875;;;23.98;49.74
44531;BME280;30240;47.418;0.700;2023-07-13T10:56:39;100857.04956054688;;;23.1;51.53
44531;BME280;30240;47.418;0.700;2023-07-13T10:59:10;100848.095703125;;;23.79;51.13
44531;BME280;30240;47.418;0.700;2023-07-13T11:01:40;100843.017578125;;;25.3;47.68
44531;BME280;30240;47.418;0.700;2023-07-13T11:03:58;100846.64306640625;;;26.11;45.33
44531;BME280;30240;47.418;0.700;2023-07-13T11:06:37;100846.64306640625;;;26.11;45.33
44531;BME280;30240;47.418;0.700;2023-07-13T11:08:53;100836.82861328125;;;25.84;43.95